Time;durP1;ratioP1;P1;durP2;ratioP2;P2;SDS_P1;SDS_P2;PMS_P1;PMS_P2;Temp;Humidity;BMP_temperature;BMP_pressure;BME280_temperature;BME280_humidity;BME280_pressure;Samples;Min_cycle;Max_cycle;Signal;HPM_P1;HPM_P2
2021/09/05 00:00:07;;;;;;;10.52;9.60;;;14.10;99.90;;;14.92;87.10;98081.72;5252427;28;20219;-59
2021/09/05 00:02:40;;;;;;;10.18;9.27;;;14.10;99.90;;;14.97;87.09;98083.69;5253637;28;20202;-54
2021/09/05 00:05:15;;;;;;;10.95;9.82;;;14.10;99.90;;;14.87;87.21;98074.66;5255717;28;20197;-58
2021/09/05 00:07:48;;;;;;;10.60;9.60;;;14.00;99.90;;;14.86;86.66;98077.19;5254043;28;20217;-58
2021/09/05 00:10:21;;;;;;;10.38;9.48;;;14.00;99.90;;;14.85;86.53;98078.88;5255825;28;20224;-59
2021/09/05 00:12:54;;;;;;;9.95;8.95;;;14.00;99.90;;;14.86;86.94;98078.06;5262598;28;20226;-57
2021/09/05 00:15:27;;;;;;;9.90;8.98;;;14.00;99.90;;;14.77;87.01;98084.50;5255977;28;20204;-56
2021/09/05 00:18:00;;;;;;;10.82;9.82;;;13.90;99.90;;;14.79;86.99;98081.19;5253778;28;20196;-57
2021/09/05 00:20:34;;;;;;;11.43;10.18;;;13.90;99.90;;;14.79;88.00;98078.63;5250372;28;20316;-57
2021/09/05 00:23:09;;;;;;;11.10;10.00;;;14.00;99.90;;;14.71;87.75;98081.63;5259660;28;20202;-58
2021/09/05 00:25:42;;;;;;;10.00;9.10;;;13.90;99.90;;;14.68;86.84;98082.41;5251722;28;20204;-56
2021/09/05 00:28:15;;;;;;;10.30;9.30;;;13.90;99.90;;;14.69;87.66;98089.31;5260723;28;20188;-57
2021/09/05 00:30:48;;;;;;;11.93;10.77;;;13.90;99.90;;;14.72;88.14;98078.28;5260120;28;20230;-55
2021/09/05 00:33:21;;;;;;;10.88;9.88;;;14.00;99.90;;;14.72;87.64;98079.16;5250761;28;20448;-58
2021/09/05 00:35:56;;;;;;;10.60;9.70;;;13.90;99.90;;;14.69;87.15;98080.72;5255376;28;20202;-58
2021/09/05 00:38:29;;;;;;;10.95;10.00;;;13.90;99.90;;;14.66;87.49;98078.88;5251966;28;20198;-59
2021/09/05 00:41:02;;;;;;;11.25;10.25;;;13.80;99.90;;;14.66;87.81;98084.03;5252365;28;20635;-58
2021/09/05 00:44:02;;;;;;;10.70;9.73;;;13.90;99.90;;;14.67;87.24;98085.78;5264583;28;20677;-56
2021/09/05 00:46:37;;;;;;;10.32;9.43;;;13.80;99.90;;;14.62;87.43;98082.09;5255891;28;20196;-58
2021/09/05 00:49:12;;;;;;;10.55;9.70;;;13.70;99.90;;;14.58;87.32;98080.22;5254254;28;20238;-60
2021/09/05 00:51:47;;;;;;;10.80;9.70;;;13.70;99.90;;;14.61;87.69;98076.09;5253637;28;20674;-58
2021/09/05 00:54:21;;;;;;;10.55;9.55;;;13.70;99.90;;;14.57;88.03;98075.91;5263730;28;20677;-55
2021/09/05 00:56:54;;;;;;;11.13;10.05;;;13.70;99.90;;;14.63;87.18;98076.16;5250365;28;20203;-55
2021/09/05 00:59:27;;;;;;;10.45;9.55;;;13.70;99.90;;;14.58;88.02;98085.38;5255250;28;20238;-57
2021/09/05 01:02:01;;;;;;;10.57;9.65;;;13.70;99.90;;;14.54;86.71;98080.91;5256916;28;20211;-56
2021/09/05 01:04:35;;;;;;;10.70;9.70;;;13.70;99.90;;;14.51;87.53;98075.59;5248551;28;20198;-60
2021/09/05 01:07:10;;;;;;;11.02;9.93;;;13.70;99.90;;;14.38;87.20;98072.44;5254148;28;20200;-58
2021/09/05 01:09:43;;;;;;;10.98;10.10;;;13.50;99.90;;;14.37;88.04;98080.97;5256858;28;20684;-58
2021/09/05 01:12:16;;;;;;;10.40;9.55;;;13.60;99.90;;;14.28;87.96;98075.44;5256377;28;20342;-58
2021/09/05 01:14:49;;;;;;;9.93;9.05;;;13.40;99.90;;;14.24;87.38;98078.66;5251367;28;20216;-57
2021/09/05 01:17:22;;;;;;;10.98;10.00;;;13.40;99.90;;;14.17;88.07;98077.50;5253849;28;20206;-61
2021/09/05 01:19:55;;;;;;;9.88;9.07;;;13.30;99.90;;;14.12;87.81;98078.09;5258374;28;20220;-59
2021/09/05 01:22:30;;;;;;;10.73;9.70;;;13.30;99.90;;;14.18;89.24;98073.22;5257693;28;20201;-61
2021/09/05 01:25:04;;;;;;;11.05;9.65;;;13.40;99.90;;;14.08;88.39;98076.16;5251480;28;20199;-58
2021/09/05 01:27:39;;;;;;;10.73;9.73;;;13.20;99.90;;;14.09;88.29;98068.53;5251888;28;20207;-60
2021/09/05 01:30:12;;;;;;;11.15;9.65;;;13.30;99.90;;;14.11;88.91;98077.22;5248810;28;20223;-57
2021/09/05 01:32:45;;;;;;;11.15;10.15;;;13.30;99.90;;;14.03;88.73;98082.81;5254150;28;20215;-59
2021/09/05 01:35:18;;;;;;;10.88;9.70;;;13.30;99.90;;;14.03;87.97;98082.81;5258057;28;20192;-59
2021/09/05 01:37:51;;;;;;;11.32;10.32;;;13.20;99.90;;;14.05;88.96;98082.06;5254536;28;20581;-56
2021/09/05 01:40:24;;;;;;;11.23;10.23;;;13.20;99.90;;;14.02;88.87;98081.03;5261523;28;20224;-58
2021/09/05 01:43:00;;;;;;;10.77;9.77;;;13.20;99.90;;;14.02;88.66;98086.16;5247807;28;20204;-57
2021/09/05 01:45:33;;;;;;;11.23;10.32;;;13.20;99.90;;;14.02;87.89;98091.31;5253502;28;20202;-57
2021/09/05 01:48:07;;;;;;;11.23;10.25;;;13.20;99.90;;;14.04;88.76;98097.41;5250809;28;20200;-59
2021/09/05 01:50:40;;;;;;;10.55;9.65;;;13.20;99.90;;;13.97;89.06;98093.69;5251985;28;20247;-61
2021/09/05 01:53:13;;;;;;;11.25;10.25;;;13.10;99.90;;;13.97;89.33;98098.81;5253967;28;20210;-59
2021/09/05 01:55:46;;;;;;;10.65;9.68;;;13.20;99.90;;;13.95;89.15;98100.44;5250807;28;20205;-57
2021/09/05 01:58:20;;;;;;;10.70;9.70;;;13.20;99.90;;;13.96;89.10;98097.03;5248411;28;20592;-58
2021/09/05 02:00:53;;;;;;;10.20;9.30;;;13.20;99.90;;;13.86;89.38;98095.72;5252636;28;20239;-56
2021/09/05 02:03:26;;;;;;;10.63;9.63;;;13.10;99.90;;;13.80;88.91;98094.56;5256648;28;20203;-57
2021/09/05 02:06:00;;;;;;;10.82;9.82;;;13.00;99.90;;;13.78;87.66;98097.03;5259902;28;20622;-59
2021/09/05 02:08:33;;;;;;;11.50;10.40;;;12.90;99.90;;;13.73;88.66;98099.41;5250097;28;20196;-57
2021/09/05 02:11:06;;;;;;;10.93;9.93;;;13.00;99.90;;;13.68;88.66;98097.44;5253108;28;20197;-57
2021/09/05 02:13:40;;;;;;;10.95;9.95;;;12.90;99.90;;;13.70;90.02;98094.09;5248866;28;20686;-58
2021/09/05 02:16:14;;;;;;;12.15;10.95;;;12.90;99.90;;;13.76;89.29;98101.22;5259000;28;20340;-57
2021/09/05 02:18:48;;;;;;;11.13;10.13;;;13.00;99.90;;;13.75;89.73;98096.91;5247145;28;20214;-55
2021/09/05 02:21:21;;;;;;;10.88;9.88;;;13.00;99.90;;;13.74;89.48;98101.16;5252505;28;20200;-58
2021/09/05 02:23:54;;;;;;;11.77;10.73;;;13.00;99.90;;;13.62;88.23;98105.72;5250904;28;20192;-57
2021/09/05 02:26:27;;;;;;;10.18;9.15;;;12.90;99.90;;;13.59;88.52;98107.22;5249983;28;20682;-60
2021/09/05 02:29:01;;;;;;;10.77;9.85;;;12.80;99.90;;;13.62;89.32;98102.22;5250888;28;20220;-56
2021/09/05 02:31:34;;;;;;;10.73;9.77;;;12.90;99.90;;;13.68;90.03;98102.56;5250258;28;20199;-57
2021/09/05 02:34:07;;;;;;;11.20;10.10;;;12.90;99.90;;;13.63;88.19;98104.03;5254366;28;20669;-61
2021/09/05 02:36:40;;;;;;;10.70;9.80;;;12.80;99.90;;;13.57;89.20;98103.72;5256762;28;20562;-60
2021/09/05 02:39:13;;;;;;;10.93;9.70;;;12.80;99.90;;;13.60;89.01;98103.88;5259349;28;20223;-60
2021/09/05 02:41:46;;;;;;;11.50;10.20;;;12.80;99.90;;;13.60;89.56;98107.31;5255518;28;20204;-60
2021/09/05 02:44:21;;;;;;;10.18;9.38;;;12.80;99.90;;;13.57;90.07;98108.84;5255926;28;20196;-59
2021/09/05 02:46:54;;;;;;;10.95;9.82;;;12.80;99.90;;;13.55;89.33;98113.03;5259229;28;20641;-60
2021/09/05 02:49:27;;;;;;;11.25;10.15;;;12.70;99.90;;;13.50;88.33;98121.38;5255330;28;20218;-59
2021/09/05 02:52:00;;;;;;;10.35;9.32;;;12.60;99.90;;;13.47;88.99;98115.22;5259153;28;20207;-60
2021/09/05 02:54:33;;;;;;;10.90;9.90;;;12.60;99.90;;;13.39;88.61;98119.97;5255237;28;20248;-60
2021/09/05 02:57:07;;;;;;;11.40;10.30;;;12.60;99.90;;;13.36;89.71;98122.38;5256895;28;20204;-60
2021/09/05 02:59:41;;;;;;;9.98;9.00;;;12.60;99.90;;;13.35;88.69;98123.19;5253198;28;20220;-60
2021/09/05 03:02:14;;;;;;;9.90;9.00;;;12.50;99.90;;;13.30;88.59;98111.78;5253003;28;20201;-60
2021/09/05 03:04:47;;;;;;;11.55;10.55;;;12.50;99.90;;;13.19;89.56;98118.03;5248050;28;20649;-60
2021/09/05 03:07:20;;;;;;;11.52;10.63;;;12.40;99.90;;;13.20;89.12;98122.38;5252146;28;20203;-60
2021/09/05 03:09:53;;;;;;;11.13;10.13;;;12.40;99.90;;;13.16;89.49;98118.78;5260109;28;20231;-59
2021/09/05 03:12:27;;;;;;;10.23;9.40;;;12.30;99.90;;;13.11;89.98;98114.22;5248626;28;20193;-59
2021/09/05 03:15:01;;;;;;;11.48;10.48;;;12.30;99.90;;;13.18;90.93;98108.59;5253262;28;20219;-60
2021/09/05 03:17:35;;;;;;;10.23;9.32;;;12.40;99.90;;;13.19;91.66;98110.34;5252942;28;20562;-60
2021/09/05 03:20:10;;;;;;;10.57;9.57;;;12.50;99.90;;;13.17;89.86;98110.28;5251560;28;20228;-60
2021/09/05 03:22:43;;;;;;;10.88;9.77;;;12.40;99.90;;;13.21;90.24;98116.44;5251696;28;20196;-59
2021/09/05 03:25:17;;;;;;;10.30;9.40;;;12.40;99.90;;;13.21;90.43;98111.31;5259038;28;20196;-61
2021/09/05 03:27:50;;;;;;;11.13;10.07;;;12.40;99.90;;;13.16;90.40;98112.75;5263151;28;20282;-60
2021/09/05 03:30:24;;;;;;;10.35;9.40;;;12.40;99.90;;;13.20;90.15;98112.13;5253543;28;20231;-60
2021/09/05 03:32:57;;;;;;;10.32;9.43;;;12.40;99.90;;;13.27;89.55;98111.63;5250983;28;20551;-59
2021/09/05 03:35:30;;;;;;;11.13;10.13;;;12.50;99.90;;;13.20;90.45;98115.56;5252998;28;20704;-60
2021/09/05 03:38:03;;;;;;;10.93;10.00;;;12.50;99.90;;;13.25;89.87;98123.50;5255482;28;20866;-60
2021/09/05 03:40:37;;;;;;;10.35;9.55;;;12.40;99.90;;;13.23;90.56;98125.09;5253162;28;20231;-60
2021/09/05 03:43:11;;;;;;;10.57;9.68;;;12.50;99.90;;;13.26;90.33;98126.16;5253816;28;20200;-59
2021/09/05 03:45:45;;;;;;;11.55;10.35;;;12.50;99.90;;;13.29;91.06;98126.31;5256215;28;20206;-59
2021/09/05 03:48:19;;;;;;;10.95;9.88;;;12.60;99.90;;;13.29;89.92;98126.31;5254875;28;20564;-60
2021/09/05 03:50:52;;;;;;;10.55;9.65;;;12.50;99.90;;;13.27;89.75;98127.03;5252634;28;20220;-59
2021/09/05 03:53:26;;;;;;;10.85;9.95;;;12.50;99.90;;;13.20;89.34;98125.81;5255888;28;20206;-59
2021/09/05 03:55:59;;;;;;;11.50;10.43;;;12.40;99.90;;;13.14;89.58;98128.09;5258213;28;20224;-59
2021/09/05 03:58:32;;;;;;;10.63;9.63;;;12.40;99.90;;;13.13;89.21;98128.88;5255088;28;20196;-60
2021/09/05 04:01:06;;;;;;;10.55;9.65;;;12.30;99.90;;;13.11;89.33;98132.19;5257093;28;20567;-60
2021/09/05 04:03:40;;;;;;;10.80;9.90;;;12.30;99.90;;;13.10;89.44;98127.84;5258206;28;20199;-60
2021/09/05 04:06:14;;;;;;;10.45;9.55;;;12.40;99.90;;;13.13;89.75;98133.13;5255060;28;20192;-60
2021/09/05 04:08:50;;;;;;;10.18;9.27;;;12.40;99.90;;;13.13;90.02;98130.56;5252851;28;20950;-60
2021/09/05 04:11:23;;;;;;;11.00;9.93;;;12.40;99.90;;;13.16;90.23;98130.72;5254937;28;20207;-59
2021/09/05 04:13:56;;;;;;;10.70;9.77;;;12.40;99.90;;;13.16;90.06;98126.50;5253605;28;20212;-60
2021/09/05 04:16:30;;;;;;;10.63;9.68;;;12.40;99.90;;;13.18;88.89;98136.81;5262279;28;20226;-60
2021/09/05 04:19:03;;;;;;;9.93;9.02;;;12.30;99.90;;;13.16;89.04;98141.88;5254375;28;20223;-58
2021/09/05 04:21:36;;;;;;;9.00;8.20;;;12.30;99.90;;;13.14;87.99;98145.16;5260074;28;20204;-59
2021/09/05 04:24:09;;;;;;;9.82;8.93;;;12.20;99.90;;;13.10;88.22;98140.66;5256108;28;20199;-60
2021/09/05 04:26:43;;;;;;;10.27;9.30;;;12.20;99.90;;;13.06;89.41;98135.38;5255227;28;20197;-59
2021/09/05 04:29:16;;;;;;;10.32;9.43;;;12.30;99.90;;;13.05;88.49;98141.31;5256419;28;20232;-59
2021/09/05 04:31:50;;;;;;;9.73;8.82;;;12.30;99.90;;;13.04;87.92;98139.53;5257509;28;20201;-59
2021/09/05 04:34:23;;;;;;;10.60;9.68;;;12.20;99.90;;;12.98;88.08;98131.53;5256172;28;20370;-60
2021/09/05 04:36:56;;;;;;;10.20;9.40;;;12.10;99.90;;;12.95;88.04;98149.34;5256244;28;20196;-60
2021/09/05 04:39:30;;;;;;;9.98;8.60;;;12.10;99.90;;;12.89;87.75;98148.13;5254415;28;20226;-60
2021/09/05 04:42:03;;;;;;;9.88;8.98;;;12.00;99.90;;;12.88;87.60;98152.41;5254214;28;20201;-60
2021/09/05 04:44:36;;;;;;;8.82;8.13;;;12.00;99.90;;;12.84;86.88;98150.44;5254952;28;20206;-59
2021/09/05 04:47:11;;;;;;;9.50;8.55;;;11.90;99.90;;;12.79;87.28;98162.13;5257001;28;20412;-60
2021/09/05 04:49:44;;;;;;;9.57;8.68;;;11.90;99.90;;;12.74;87.49;98158.47;5252112;28;20240;-61
2021/09/05 04:52:17;;;;;;;9.07;8.38;;;11.90;99.90;;;12.76;87.93;98162.88;5255540;28;20207;-58
2021/09/05 04:54:50;;;;;;;10.63;9.73;;;11.90;99.90;;;12.76;88.78;98173.16;5256925;28;21722;-60
2021/09/05 04:57:23;;;;;;;10.43;9.48;;;12.00;99.90;;;12.80;88.44;98176.75;5255054;28;20215;-59
2021/09/05 04:59:56;;;;;;;10.85;9.95;;;12.00;99.90;;;12.84;88.78;98173.53;5256429;28;20219;-60
2021/09/05 05:02:31;;;;;;;10.57;9.63;;;12.00;99.90;;;12.86;88.74;98182.22;5259361;28;20565;-60
2021/09/05 05:05:05;;;;;;;9.90;9.00;;;12.00;99.90;;;12.84;89.55;98181.22;5253223;28;20258;-59
2021/09/05 05:07:39;;;;;;;10.32;9.43;;;12.00;99.90;;;12.84;88.97;98181.22;5259226;28;20199;-60
2021/09/05 05:10:12;;;;;;;9.65;8.85;;;12.00;99.90;;;12.80;89.40;98185.31;5252701;28;20238;-59
2021/09/05 05:12:45;;;;;;;10.65;9.77;;;12.00;99.90;;;12.79;89.31;98192.91;5254994;28;20212;-60
2021/09/05 05:15:18;;;;;;;10.88;9.88;;;12.00;99.90;;;12.85;89.17;98189.03;5254701;28;20578;-60
2021/09/05 05:17:52;;;;;;;10.23;9.18;;;12.00;99.90;;;12.95;88.82;98192.06;5255374;28;20196;-59
2021/09/05 05:20:26;;;;;;;10.82;9.93;;;12.10;99.90;;;12.94;88.52;98192.88;5252129;28;20586;-58
2021/09/05 05:22:59;;;;;;;11.10;10.05;;;12.10;99.90;;;13.02;88.64;98191.59;5255021;28;20599;-60
2021/09/05 05:25:32;;;;;;;11.10;10.15;;;12.20;99.90;;;13.11;88.31;98196.34;5259494;28;20227;-60
2021/09/05 05:28:05;;;;;;;10.85;9.90;;;12.30;99.90;;;13.15;88.70;98198.25;5262465;28;20707;-60
2021/09/05 05:30:38;;;;;;;10.98;9.98;;;12.30;99.90;;;13.18;88.52;98203.56;5253629;28;20245;-60
2021/09/05 05:33:13;;;;;;;10.77;9.70;;;12.30;99.90;;;13.21;87.81;98199.44;5253223;28;20209;-60
2021/09/05 05:35:46;;;;;;;11.13;9.75;;;12.40;99.90;;;13.33;88.15;98206.94;5259201;28;20207;-59
2021/09/05 05:38:19;;;;;;;10.82;9.93;;;12.50;99.90;;;13.31;87.30;98205.13;5256476;28;20210;-59
2021/09/05 05:40:52;;;;;;;10.95;9.98;;;12.40;99.90;;;13.55;87.09;98205.47;5256476;28;20323;-59
2021/09/05 05:43:25;;;;;;;11.10;10.00;;;12.50;99.90;;;13.75;85.64;98205.69;5256194;28;20441;-60
2021/09/05 05:45:58;;;;;;;11.63;10.63;;;12.70;99.90;;;13.80;85.12;98208.47;5257955;28;20235;-59
2021/09/05 05:48:33;;;;;;;10.52;9.55;;;12.80;99.90;;;14.10;85.47;98208.22;5255531;28;20632;-58
2021/09/05 05:51:06;;;;;;;10.93;9.93;;;13.10;99.90;;;14.33;85.62;98205.06;5254440;28;20199;-58
2021/09/05 05:53:39;;;;;;;10.82;9.85;;;13.40;99.90;;;14.65;81.90;98210.91;5258509;28;20196;-59
2021/09/05 05:56:12;;;;;;;10.13;9.02;;;13.60;99.90;;;14.96;80.53;98204.56;5254247;28;20185;-61
2021/09/05 05:58:45;;;;;;;10.88;9.77;;;13.90;99.90;;;15.29;78.63;98206.09;5258332;28;20230;-60
2021/09/05 06:01:18;;;;;;;9.82;8.98;;;14.10;99.90;;;15.74;76.58;98208.94;5255001;28;20204;-60
2021/09/05 06:03:53;;;;;;;10.23;9.32;;;14.40;99.90;;;16.05;75.43;98201.56;5256312;28;20203;-60
2021/09/05 06:06:28;;;;;;;9.98;9.18;;;14.60;99.90;;;16.48;75.06;98201.59;5258932;28;20229;-60
2021/09/05 06:09:01;;;;;;;10.35;9.38;;;15.10;99.90;;;17.00;73.02;98205.34;5256054;28;20757;-60
2021/09/05 06:11:34;;;;;;;9.63;8.82;;;15.50;99.90;;;17.42;70.31;98202.56;5257696;28;20192;-59
2021/09/05 06:14:08;;;;;;;10.05;9.15;;;15.80;99.90;;;17.61;69.64;98201.50;5258410;28;20407;-61
2021/09/05 06:16:41;;;;;;;10.38;9.48;;;16.00;99.90;;;17.77;69.93;98202.09;5257117;28;20196;-60
2021/09/05 06:19:15;;;;;;;10.35;9.55;;;16.20;99.90;;;17.90;68.80;98202.53;5258839;28;20302;-60
2021/09/05 06:21:48;;;;;;;10.20;9.25;;;16.40;99.90;;;18.05;67.27;98209.91;5255755;28;20673;-61
2021/09/05 06:24:21;;;;;;;10.27;9.27;;;16.50;99.90;;;18.24;66.82;98214.88;5255340;28;20203;-60
2021/09/05 06:26:54;;;;;;;10.20;9.23;;;16.60;99.90;;;18.23;67.19;98208.84;5256914;28;20274;-60
2021/09/05 06:29:27;;;;;;;10.43;9.32;;;16.70;99.90;;;18.69;65.98;98212.88;5255166;28;20216;-61
2021/09/05 06:32:00;;;;;;;10.30;9.25;;;16.90;99.90;;;19.18;64.44;98216.06;5255397;28;20645;-60
2021/09/05 06:34:35;;;;;;;10.13;9.25;;;17.30;99.90;;;19.23;63.31;98209.31;5253688;28;20227;-59
2021/09/05 06:37:08;;;;;;;10.23;9.43;;;17.50;99.90;;;19.30;62.81;98211.22;5255038;28;20620;-61
2021/09/05 06:39:41;;;;;;;10.48;9.57;;;17.50;99.90;;;19.55;62.54;98212.78;5259154;28;20765;-61
2021/09/05 06:42:15;;;;;;;9.93;8.95;;;17.60;99.90;;;19.64;61.30;98212.16;5260303;28;20215;-61
2021/09/05 06:44:48;;;;;;;9.63;8.68;;;18.00;99.90;;;20.04;59.75;98218.44;5256626;28;20207;-61
2021/09/05 06:47:21;;;;;;;9.65;8.82;;;18.10;99.90;;;20.22;60.07;98215.41;5257285;28;20216;-61
2021/09/05 06:49:55;;;;;;;9.60;8.80;;;18.40;99.90;;;20.47;59.07;98209.97;5259873;28;20597;-61
2021/09/05 06:52:28;;;;;;;9.25;8.45;;;18.50;99.90;;;20.70;58.56;98213.13;5257717;28;20586;-60
2021/09/05 06:55:01;;;;;;;9.68;8.70;;;18.70;99.90;;;20.91;57.13;98215.31;5255885;28;20196;-60
2021/09/05 06:57:35;;;;;;;9.40;8.60;;;18.80;99.90;;;21.45;55.78;98213.88;5259660;28;20246;-60
2021/09/05 07:00:10;;;;;;;9.00;8.20;;;19.10;99.90;;;21.96;54.82;98210.50;5254019;28;21011;-60
2021/09/05 07:02:43;;;;;;;9.35;8.60;;;19.30;99.90;;;21.90;55.62;98210.38;5258000;28;20210;-60
2021/09/05 07:05:18;;;;;;;9.00;8.30;;;19.40;99.90;;;22.21;54.74;98216.16;5253583;28;20197;-61
2021/09/05 07:07:51;;;;;;;8.88;8.10;;;19.50;99.90;;;22.78;53.00;98220.53;5260341;28;20215;-60
2021/09/05 07:10:24;;;;;;;9.65;8.75;;;19.80;99.90;;;22.57;53.76;98209.78;5265134;28;20594;-60
2021/09/05 07:12:58;;;;;;;8.80;7.90;;;19.90;99.90;;;23.20;52.03;98218.50;5258558;28;20196;-60
2021/09/05 07:15:34;;;;;;;9.15;8.35;;;20.10;99.90;;;23.17;51.82;98217.59;5256391;28;20298;-61
2021/09/05 07:18:07;;;;;;;8.90;8.00;;;20.40;99.90;;;23.66;50.38;98219.03;5262255;28;20441;-61
2021/09/05 07:20:42;;;;;;;8.93;8.20;;;20.60;99.90;;;23.70;50.95;98215.63;5255777;28;20229;-61
2021/09/05 07:23:15;;;;;;;8.70;7.93;;;20.90;99.90;;;23.81;49.99;98220.13;5254457;28;20207;-60
2021/09/05 07:25:53;;;;;;;8.43;7.65;;;21.00;99.90;;;23.86;50.77;98221.88;5258772;28;20200;-61
2021/09/05 07:28:26;;;;;;;8.43;7.65;;;21.20;99.90;;;23.59;51.06;98224.19;5256961;28;20200;-60
2021/09/05 07:31:00;;;;;;;8.65;7.85;;;21.40;99.90;;;23.67;51.44;98226.03;5257662;28;20303;-61
2021/09/05 07:33:33;;;;;;;8.40;7.65;;;21.60;99.90;;;23.55;51.76;98225.03;5253173;28;20591;-62
2021/09/05 07:36:08;;;;;;;7.63;7.00;;;21.60;99.90;;;23.72;51.39;98226.97;5257387;28;20688;-61
2021/09/05 07:38:41;;;;;;;8.35;7.68;;;21.90;99.90;;;23.53;52.00;98228.47;5256666;28;20200;-59
2021/09/05 07:41:14;;;;;;;8.48;7.70;;;21.90;99.90;;;23.43;52.94;98224.00;5256429;28;20646;-61
2021/09/05 07:43:47;;;;;;;8.02;7.43;;;21.90;99.90;;;23.58;52.41;98226.81;5257192;28;20208;-59
2021/09/05 07:46:20;;;;;;;8.15;7.53;;;22.10;99.90;;;23.83;52.07;98220.13;5256678;28;20255;-61
2021/09/05 07:48:54;;;;;;;7.30;6.70;;;22.40;99.90;;;23.81;52.55;98225.34;5255266;28;20750;-60
2021/09/05 07:51:28;;;;;;;8.18;7.38;;;22.50;99.90;;;23.73;52.02;98229.59;5259391;28;20210;-60
2021/09/05 07:54:01;;;;;;;7.47;6.88;;;22.30;99.90;;;23.89;52.55;98232.38;5255709;28;20436;-62
2021/09/05 07:56:34;;;;;;;7.35;6.75;;;22.60;99.90;;;24.14;51.95;98234.34;5257268;28;20197;-62
2021/09/05 07:59:07;;;;;;;7.90;7.30;;;22.70;99.90;;;24.23;51.43;98226.59;5256166;28;20219;-59
2021/09/05 08:01:41;;;;;;;7.53;6.93;;;23.00;99.90;;;24.35;51.38;98227.56;5258065;28;20208;-62
2021/09/05 08:04:15;;;;;;;8.38;7.68;;;23.20;99.90;;;24.57;50.53;98234.75;5257648;28;20285;-62
2021/09/05 08:06:49;;;;;;;7.63;7.03;;;23.40;99.80;;;24.63;50.06;98229.56;5257666;28;20925;-61
2021/09/05 08:09:22;;;;;;;7.15;6.50;;;23.50;99.90;;;24.91;48.17;98234.97;5262068;28;20302;-62
2021/09/05 08:11:55;;;;;;;7.10;6.60;;;23.80;98.40;;;24.92;49.13;98237.63;5261421;28;20230;-61
2021/09/05 08:14:28;;;;;;;7.13;6.53;;;24.00;98.50;;;24.99;49.08;98227.19;5271425;28;20641;-61
2021/09/05 08:17:01;;;;;;;7.32;6.72;;;23.90;99.10;;;25.06;49.07;98232.44;5274141;28;20187;-62
2021/09/05 08:19:34;;;;;;;7.75;7.00;;;24.00;98.80;;;25.05;49.59;98227.22;5263455;28;20227;-62
2021/09/05 08:22:09;;;;;;;6.95;6.35;;;23.90;98.80;;;25.05;49.67;98225.47;5268228;28;20202;-61
2021/09/05 08:24:42;;;;;;;7.50;6.90;;;24.00;98.70;;;25.23;48.88;98231.69;5273407;28;20209;-61
2021/09/05 08:27:15;;;;;;;7.85;7.15;;;24.20;98.50;;;25.32;49.52;98226.50;5273965;28;20220;-61
2021/09/05 08:29:48;;;;;;;7.18;6.57;;;24.30;98.70;;;25.40;49.04;98225.66;5275562;28;20219;-60
2021/09/05 08:32:21;;;;;;;7.10;6.60;;;24.40;98.60;;;25.48;49.50;98225.69;5269859;28;20475;-62
2021/09/05 08:34:54;;;;;;;7.25;6.60;;;24.60;98.20;;;25.48;48.58;98225.69;5267567;28;20204;-61
2021/09/05 08:37:30;;;;;;;6.70;6.20;;;24.60;98.00;;;25.70;48.00;98229.25;5270177;28;20602;-61
2021/09/05 08:40:04;;;;;;;6.85;6.25;;;24.90;96.90;;;25.74;46.25;98224.91;5269401;28;20221;-61
2021/09/05 08:42:37;;;;;;;6.65;6.15;;;24.90;96.00;;;25.49;46.13;98226.56;5270830;28;20286;-62
2021/09/05 08:45:12;;;;;;;6.30;5.80;;;24.70;96.10;;;25.70;46.70;98234.50;5274785;28;20203;-61
2021/09/05 08:47:45;;;;;;;7.00;6.40;;;24.90;96.40;;;26.02;45.92;98231.97;5270197;28;20473;-61
2021/09/05 08:50:18;;;;;;;6.88;6.25;;;25.30;95.50;;;26.12;45.96;98243.31;5270483;28;20230;-61
2021/09/05 08:52:53;;;;;;;6.38;5.88;;;25.40;95.60;;;26.18;44.50;98239.84;5273575;28;20288;-62
2021/09/05 08:55:28;;;;;;;5.68;5.22;;;25.60;94.10;;;25.94;45.17;98241.56;5271148;28;20205;-61
2021/09/05 08:58:01;;;;;;;6.32;5.80;;;25.40;94.40;;;26.31;44.12;98241.59;5273231;28;20595;-61
2021/09/05 09:00:36;;;;;;;6.18;5.57;;;25.60;94.10;;;26.59;44.26;98242.50;5274416;28;20226;-61
2021/09/05 09:03:13;;;;;;;6.45;5.90;;;25.90;94.20;;;26.91;44.17;98242.47;5275771;28;20258;-61
2021/09/05 09:05:52;;;;;;;7.03;6.43;;;26.20;94.30;;;27.16;43.74;98250.31;5269765;28;20195;-62
2021/09/05 09:08:27;;;;;;;6.60;6.10;;;26.40;94.00;;;27.24;43.95;98245.03;5273330;28;20196;-61
2021/09/05 09:11:02;;;;;;;6.28;5.75;;;26.60;94.00;;;27.39;42.72;98251.13;5261357;28;20586;-62
2021/09/05 09:13:38;;;;;;;6.03;5.53;;;26.70;93.20;;;27.48;39.83;98247.56;5275267;28;20227;-62
2021/09/05 09:16:13;;;;;;;5.72;5.32;;;26.60;91.10;;;27.51;40.92;98247.56;5269925;28;20286;-61
2021/09/05 09:18:46;;;;;;;6.70;6.10;;;26.70;91.80;;;27.54;41.74;98244.03;5266660;28;20199;-62
2021/09/05 09:21:20;;;;;;;6.30;5.80;;;26.80;92.10;;;27.63;41.97;98242.25;5269014;28;20200;-62
2021/09/05 09:23:54;;;;;;;5.97;5.47;;;26.90;92.10;;;27.67;41.04;98251.00;5266342;28;20221;-62
2021/09/05 09:26:30;;;;;;;6.93;6.32;;;27.10;91.50;;;27.43;40.75;98245.84;5261178;28;20210;-61
2021/09/05 09:29:03;;;;;;;7.00;6.30;;;26.60;91.30;;;27.34;41.40;98242.38;5269891;28;20759;-60
2021/09/05 09:31:39;;;;;;;6.10;5.53;;;26.70;91.80;;;27.59;41.09;98242.28;5270574;28;20653;-63
2021/09/05 09:34:21;;;;;;;6.38;5.78;;;26.80;91.40;;;27.56;41.00;98244.91;5260681;28;20222;-62
2021/09/05 09:36:59;;;;;;;6.38;5.80;;;26.90;91.40;;;27.51;41.83;98238.81;5264209;28;20206;-63
2021/09/05 09:39:33;;;;;;;6.22;5.63;;;26.70;91.70;;;27.66;40.76;98243.97;5262684;28;20628;-61
2021/09/05 09:42:07;;;;;;;6.05;5.53;;;26.80;91.40;;;27.60;41.73;98244.00;5267181;28;20228;-62
2021/09/05 09:44:54;;;;;;;6.40;5.80;;;26.90;91.50;;;27.50;41.55;98242.28;5266113;28;20286;-62
2021/09/05 09:47:38;;;;;;;5.70;5.30;;;26.80;91.60;;;27.60;40.82;98242.25;5269710;28;20297;-65
2021/09/05 09:50:12;;;;;;;5.82;5.32;;;26.90;91.20;;;27.77;39.28;98242.16;5265339;28;20219;-64
2021/09/05 09:52:46;;;;;;;5.95;5.35;;;27.10;89.80;;;27.86;38.66;98241.28;5262898;28;20200;-64
2021/09/05 09:55:20;;;;;;;5.80;5.30;;;27.10;87.90;;;28.00;38.18;98236.81;5262785;28;20200;-61
2021/09/05 09:57:53;;;;;;;6.38;5.80;;;27.30;88.50;;;28.00;38.83;98234.19;5266965;28;20199;-62
2021/09/05 10:00:26;;;;;;;6.18;5.60;;;27.20;89.10;;;28.02;39.13;98239.44;5266599;28;20241;-61
2021/09/05 10:03:01;;;;;;;5.90;5.40;;;27.20;89.10;;;28.07;38.82;98235.00;5260353;28;20199;-61
2021/09/05 10:05:35;;;;;;;6.00;5.50;;;27.20;89.20;;;28.20;38.66;98233.16;5267847;28;20195;-60
2021/09/05 10:08:09;;;;;;;5.78;5.38;;;27.20;88.90;;;27.79;37.80;98239.59;5262314;28;20614;-61
2021/09/05 10:10:43;;;;;;;4.90;4.57;;;27.00;87.20;;;27.93;36.21;98231.59;5261357;28;20236;-62
2021/09/05 10:13:16;;;;;;;5.43;5.03;;;27.10;84.70;;;27.93;35.32;98231.59;5252178;28;20204;-61
2021/09/05 10:15:49;;;;;;;5.15;4.75;;;27.10;83.90;;;27.59;35.24;98240.53;5263179;28;20206;-62
2021/09/05 10:18:23;;;;;;;5.47;4.97;;;26.80;82.00;;;27.75;35.84;98232.53;5271659;28;20191;-61
2021/09/05 10:20:58;;;;;;;5.57;5.07;;;27.10;82.80;;;27.78;34.41;98238.66;5266333;28;20228;-60
2021/09/05 10:23:33;;;;;;;5.60;5.10;;;27.20;79.90;;;27.35;34.67;98233.59;5268358;28;20294;-61
2021/09/05 10:26:10;;;;;;;5.47;5.07;;;26.70;81.10;;;27.52;36.24;98227.41;5270257;28;20258;-62
2021/09/05 10:28:45;;;;;;;5.50;4.93;;;26.80;83.40;;;27.44;35.55;98232.69;5269997;28;20222;-62
2021/09/05 10:31:28;;;;;;;5.10;4.70;;;26.70;81.20;;;27.38;35.10;98228.34;5267559;28;20557;-62
2021/09/05 10:34:02;;;;;;;5.40;4.75;;;26.70;81.20;;;27.33;35.75;98234.53;5270508;28;20195;-62
2021/09/05 10:36:44;;;;;;;5.40;4.90;;;26.60;81.00;;;27.18;34.47;98227.53;5255700;28;20226;-62
2021/09/05 10:39:17;;;;;;;5.55;5.10;;;26.40;79.60;;;27.06;34.59;98224.94;5266673;28;20219;-62
2021/09/05 10:41:53;;;;;;;5.18;4.75;;;26.30;79.30;;;27.00;36.10;98222.34;5272197;28;20199;-62